Aérodrome :
LOGIN :

S'inscrire | Disclaimer

   EN    FR    IT 

 










Légende :    VFR   VFR Marginal   IFR   IFR Intensif   IFR Très Intensif
Visi : 
Plafond : 
>= 8 km
>= 3000ft
5 à 8 km
1000 à 3000 ft
1500m à 5 km
500 à 1000 ft
800 à 1500m
200 à 500 ft
< 800m
< 200 ft
Symboles :   Orages  Brouillard  Fortes neiges  Fortes précipitations  Vent > 20 kt
SIGMETs :   Divers  Orages  Givrage  Turbulence  Onde Orograph.  Cendres Volcan.







- Altitude de l'aérodrome : 433 ft
- Voir les cartes d'approche


LFOC - Chateaudun

DERNIER METAR :
  • 232300Z AUTO 01005KT CAVOK 17/13 Q1018

METARs EXPIRÉS :
  • 232230Z AUTO 02005KT CAVOK 17/14 Q1018
  • 232200Z AUTO 36006KT CAVOK 18/14 Q1018
  • 232130Z AUTO 33005KT CAVOK 19/14 Q1018
  • 232100Z AUTO 32005KT CAVOK 20/15 Q1017
  • 232030Z AUTO 29004KT CAVOK 19/16 Q1017

TAF TAF LFOC
Valide du 23 à 15h jusqu'au 24 à 15h UTC


231400Z 2315/2415 27012KT 9999 SCT035
BECMG 2318/2321 33005KT
Pas de NOTAMs connus pour ce terrain.



MET'MAP, la Météo Aéronautique d'un coup d'oeil ! - Copyright ORBIFLY Décembre 2007 - Disclaimer

ORBIFLY MET'MAP TEAM :

Programmation & Développement : Alexandra Zaïnal
Conception & Développement : Baudouin d'Aumeries
Co-Programmation & Développement : Marc-Olivier Méhu
Soutien technique & logistique : Manuel Goepfert

Contact : metmap@orbifly.com




SOURCES & CREDITS :

   NOAA